Time;durP1;ratioP1;P1;durP2;ratioP2;P2;SDS_P1;SDS_P2;PMS_P1;PMS_P2;Temp;Humidity;BMP_temperature;BMP_pressure;BME280_temperature;BME280_humidity;BME280_pressure;Samples;Min_cycle;Max_cycle;Signal;HPM_P1;HPM_P2
2022/09/26 12:13:39;;;;;;;6.60;4.68;;;;;;;;;;5066776;28;20403;-70
2022/09/26 12:16:15;;;;;;;8.30;4.63;;;;;;;;;;5067657;28;20032;-69
2022/09/26 12:18:42;;;;;;;9.45;5.35;;;;;;;;;;5055746;28;20012;-68
2022/09/26 12:21:14;;;;;;;8.07;5.00;;;;;;;;;;5057414;28;20036;-70
2022/09/26 12:23:43;;;;;;;8.90;4.85;;;;;;;;;;5057666;28;20025;-67
2022/09/26 12:26:20;;;;;;;7.75;4.70;;;;;;;;;;5057131;28;20396;-68
2022/09/26 12:29:04;;;;;;;9.73;5.32;;;;;;;;;;5054432;28;20028;-69
2022/09/26 12:31:49;;;;;;;7.43;4.97;;;;;;;;;;5055032;28;20511;-69
2022/09/26 12:34:24;;;;;;;9.02;4.95;;;;;;;;;;5054117;28;20052;-68
2022/09/26 12:36:53;;;;;;;7.63;5.15;;;;;;;;;;5047694;28;20067;-70
2022/09/26 12:39:34;;;;;;;6.90;4.93;;;;;;;;;;5047771;28;20041;-71
2022/09/26 12:42:07;;;;;;;8.82;5.57;;;;;;;;;;5046275;28;20025;-70
2022/09/26 12:44:36;;;;;;;11.95;6.45;;;;;;;;;;5047760;28;20029;-69
2022/09/26 12:47:03;;;;;;;8.05;6.03;;;;;;;;;;5046569;28;20025;-69
2022/09/26 12:49:48;;;;;;;11.50;6.22;;;;;;;;;;5047630;28;20036;-69
2022/09/26 12:52:39;;;;;;;11.15;6.30;;;;;;;;;;5047518;28;20476;-69
2022/09/26 12:55:08;;;;;;;11.48;5.57;;;;;;;;;;5047363;28;20029;-69
2022/09/26 12:57:38;;;;;;;9.75;6.10;;;;;;;;;;5043780;28;20064;-69
2022/09/26 13:00:12;;;;;;;11.45;6.90;;;;;;;;;;5045203;28;20021;-69
2022/09/26 13:02:57;;;;;;;12.73;6.30;;;;;;;;;;5046777;28;20029;-72
2022/09/26 13:05:29;;;;;;;17.60;7.63;;;;;;;;;;5047096;28;20382;-68
2022/09/26 13:08:02;;;;;;;11.95;7.05;;;;;;;;;;5046798;28;20024;-67
2022/09/26 13:10:28;;;;;;;;;;;;;;;;;;5047154;28;20025;-69
2022/09/26 13:13:22;;;;;;;21.02;8.77;;;;;;;;;;5046504;28;19921;-69
2022/09/26 13:15:47;;;;;;;19.35;8.40;;;;;;;;;;5045830;28;20033;-71
2022/09/26 13:18:21;;;;;;;26.33;9.52;;;;;;;;;;5046891;28;20029;-70
2022/09/26 13:20:52;;;;;;;13.25;7.68;;;;;;;;;;5046244;28;20054;-71
2022/09/26 13:23:37;;;;;;;34.75;10.82;;;;;;;;;;5045022;28;20041;-70
2022/09/26 13:26:07;;;;;;;12.30;7.32;;;;;;;;;;5032068;28;20041;-70
2022/09/26 13:28:37;;;;;;;13.88;7.13;;;;;;;;;;5025636;28;20104;-70
2022/09/26 13:31:08;;;;;;;10.30;6.78;;;;;;;;;;5025025;28;20026;-70
2022/09/26 13:33:41;;;;;;;8.82;6.28;;;;;;;;;;5029790;28;20069;-70
2022/09/26 13:36:08;;;;;;;10.52;6.10;;;;;;;;;;5028118;28;20052;-70
2022/09/26 13:38:34;;;;;;;8.13;5.68;;;;;;;;;;5026426;28;20032;-70
2022/09/26 13:41:11;;;;;;;8.40;6.10;;;;;;;;;;5013585;28;20104;-70
2022/09/26 13:44:02;;;;;;;10.15;6.60;;;;;;;;;;5013277;28;20465;-70
2022/09/26 13:46:40;;;;;;;9.48;6.28;;;;;;;;;;5017468;28;20049;-69
2022/09/26 13:49:19;;;;;;;9.98;6.07;;;;;;;;;;5034865;28;20021;-69
2022/09/26 13:52:01;;;;;;;8.68;5.97;;;;;;;;;;5036048;28;20033;-69
2022/09/26 13:54:39;;;;;;;12.02;5.97;;;;;;;;;;5035553;28;20107;-70
2022/09/26 13:57:24;;;;;;;11.02;6.13;;;;;;;;;;5027882;28;20017;-70
2022/09/26 13:59:53;;;;;;;7.82;6.03;;;;;;;;;;5029908;28;20029;-69
2022/09/26 14:02:20;;;;;;;10.73;5.70;;;;;;;;;;5026388;28;20068;-70
2022/09/26 14:04:48;;;;;;;12.70;6.28;;;;;;;;;;5027475;28;20026;-70
2022/09/26 14:10:00;;;;;;;13.82;6.57;;;;;;;;;;5032651;28;20040;-70
2022/09/26 14:12:49;;;;;;;9.90;5.82;;;;;;;;;;5032002;28;20053;-70
2022/09/26 14:15:17;;;;;;;11.52;6.30;;;;;;;;;;5019113;28;20034;-70
2022/09/26 14:17:43;;;;;;;9.88;6.60;;;;;;;;;;5040892;28;20033;-70
2022/09/26 14:20:16;;;;;;;13.32;7.18;;;;;;;;;;5042304;28;20052;-68
2022/09/26 14:22:50;;;;;;;12.35;7.13;;;;;;;;;;5035202;28;20033;-70
2022/09/26 14:25:43;;;;;;;15.35;8.73;;;;;;;;;;5025099;28;20049;-70
2022/09/26 14:28:18;;;;;;;13.30;8.85;;;;;;;;;;5031961;28;20131;-70
2022/09/26 14:31:03;;;;;;;12.38;8.13;;;;;;;;;;5042036;28;20029;-70
2022/09/26 14:33:29;;;;;;;15.20;9.05;;;;;;;;;;5038436;28;20049;-70
2022/09/26 14:36:15;;;;;;;12.63;9.63;;;;;;;;;;5035942;28;20135;-68
2022/09/26 14:38:41;;;;;;;18.38;11.10;;;;;;;;;;5043212;28;20105;-69
2022/09/26 14:41:16;;;;;;;14.82;9.60;;;;;;;;;;5031954;28;20048;-69
2022/09/26 14:43:43;;;;;;;14.95;9.98;;;;;;;;;;5021048;28;20028;-69
2022/09/26 14:46:16;;;;;;;14.18;9.32;;;;;;;;;;5025211;28;20405;-69
2022/09/26 14:48:43;;;;;;;14.95;9.48;;;;;;;;;;5025782;28;20117;-69
2022/09/26 14:51:16;;;;;;;13.27;9.52;;;;;;;;;;5029424;28;20108;-68
2022/09/26 14:53:47;;;;;;;15.02;9.48;;;;;;;;;;5041636;28;20053;-69
2022/09/26 14:56:15;;;;;;;14.18;9.38;;;;;;;;;;5029789;28;20029;-69
2022/09/26 14:58:41;;;;;;;13.60;9.48;;;;;;;;;;5036771;28;20088;-69
2022/09/26 15:01:26;;;;;;;17.00;10.27;;;;;;;;;;5028668;28;20025;-68
2022/09/26 15:04:28;;;;;;;14.75;9.52;;;;;;;;;;5028296;28;20033;-68
2022/09/26 15:06:56;;;;;;;13.85;10.63;;;;;;;;;;5009373;28;20458;-67
2022/09/26 15:09:25;;;;;;;16.92;10.60;;;;;;;;;;5012679;28;20108;-68
2022/09/26 15:11:57;;;;;;;19.23;12.68;;;;;;;;;;5028232;28;20091;-70
2022/09/26 15:14:42;;;;;;;21.20;13.90;;;;;;;;;;5023324;28;20057;-69
2022/09/26 15:17:16;;;;;;;21.30;13.65;;;;;;;;;;5030008;28;20021;-69
2022/09/26 15:19:47;;;;;;;19.92;12.27;;;;;;;;;;5029213;28;20061;-69
2022/09/26 15:22:15;;;;;;;16.90;11.63;;;;;;;;;;5017703;28;20042;-69
2022/09/26 15:24:42;;;;;;;18.73;12.13;;;;;;;;;;5042285;28;20032;-69
2022/09/26 15:27:16;;;;;;;18.60;11.93;;;;;;;;;;5020822;28;20045;-69
2022/09/26 15:29:46;;;;;;;16.50;11.52;;;;;;;;;;5019925;28;20048;-69
2022/09/26 15:32:19;;;;;;;18.60;10.95;;;;;;;;;;5027177;28;20504;-69
2022/09/26 15:34:45;;;;;;;16.90;12.10;;;;;;;;;;5028135;28;20034;-70
2022/09/26 15:37:35;;;;;;;20.60;12.40;;;;;;;;;;5028716;28;20025;-69
2022/09/26 15:40:22;;;;;;;26.50;16.00;;;;;;;;;;4970251;28;20462;-69
2022/09/26 15:42:57;;;;;;;26.65;17.00;;;;;;;;;;4979073;28;20049;-69
2022/09/26 15:45:27;;;;;;;29.40;17.75;;;;;;;;;;4979068;28;20042;-69
2022/09/26 15:47:57;;;;;;;28.77;18.00;;;;;;;;;;4972886;28;20029;-67
2022/09/26 15:50:29;;;;;;;27.38;15.93;;;;;;;;;;4976976;28;20084;-67
2022/09/26 15:53:01;;;;;;;18.50;12.98;;;;;;;;;;4989521;28;20034;-68
2022/09/26 15:55:32;;;;;;;19.83;14.20;;;;;;;;;;4989458;28;20088;-69
2022/09/26 15:58:00;;;;;;;18.52;13.50;;;;;;;;;;4972852;28;20030;-68
2022/09/26 16:00:29;;;;;;;19.13;13.45;;;;;;;;;;4989227;28;20557;-67
2022/09/26 16:02:55;;;;;;;18.35;13.35;;;;;;;;;;4988850;28;20030;-66
2022/09/26 16:05:21;;;;;;;19.88;14.13;;;;;;;;;;4989143;28;20413;-68
2022/09/26 16:07:49;;;;;;;19.33;13.05;;;;;;;;;;4988973;28;20058;-68
2022/09/26 16:10:34;;;;;;;20.58;13.82;;;;;;;;;;4988964;28;20416;-68
2022/09/26 16:13:00;;;;;;;19.40;13.57;;;;;;;;;;4988950;28;20058;-67
2022/09/26 16:15:30;;;;;;;19.85;13.40;;;;;;;;;;4972497;28;20449;-66
2022/09/26 16:17:57;;;;;;;18.50;13.25;;;;;;;;;;5008218;28;20469;-66
2022/09/26 16:20:28;;;;;;;20.45;13.75;;;;;;;;;;5010778;28;20662;-67
2022/09/26 16:22:55;;;;;;;17.65;13.35;;;;;;;;;;5018290;28;20033;-66
2022/09/26 16:25:28;;;;;;;16.63;12.43;;;;;;;;;;5049692;28;20447;-67
2022/09/26 16:27:57;;;;;;;18.17;12.50;;;;;;;;;;5032573;28;20139;-67
2022/09/26 16:30:26;;;;;;;15.73;11.98;;;;;;;;;;5030513;28;20025;-68
2022/09/26 16:32:55;;;;;;;16.92;12.50;;;;;;;;;;5029880;28;20115;-69
2022/09/26 16:35:25;;;;;;;15.52;8.80;;;;;;;;;;5044740;28;20033;-68
2022/09/26 16:37:58;;;;;;;17.92;9.80;;;;;;;;;;5050323;28;20025;-66
2022/09/26 16:40:28;;;;;;;21.38;14.43;;;;;;;;;;5050387;28;20021;-67
2022/09/26 16:43:02;;;;;;;23.75;15.10;;;;;;;;;;5049901;28;20075;-67
2022/09/26 16:45:28;;;;;;;15.68;9.02;;;;;;;;;;5049733;28;20029;-67
2022/09/26 16:47:54;;;;;;;12.43;7.53;;;;;;;;;;5040572;28;20472;-67
2022/09/26 16:50:29;;;;;;;13.18;6.72;;;;;;;;;;5037934;28;20055;-68
2022/09/26 16:52:56;;;;;;;14.98;7.95;;;;;;;;;;5044584;28;20128;-67
2022/09/26 16:55:23;;;;;;;14.18;8.88;;;;;;;;;;5035555;28;20474;-67
2022/09/26 16:58:00;;;;;;;16.95;9.00;;;;;;;;;;5043765;28;20041;-66
2022/09/26 17:03:23;;;;;;;15.98;10.52;;;;;;;;;;5043806;28;20071;-67
2022/09/26 17:05:50;;;;;;;17.40;11.93;;;;;;;;;;5043878;28;20025;-67
2022/09/26 17:08:17;;;;;;;17.13;10.57;;;;;;;;;;5047231;28;20503;-67
2022/09/26 17:10:44;;;;;;;17.80;11.27;;;;;;;;;;5053641;28;20029;-68
2022/09/26 17:13:15;;;;;;;14.07;10.13;;;;;;;;;;5043889;28;20053;-68
2022/09/26 17:15:42;;;;;;;12.10;7.60;;;;;;;;;;5049224;28;20029;-69
2022/09/26 17:18:10;;;;;;;12.38;8.02;;;;;;;;;;5041481;28;20037;-67
2022/09/26 17:20:37;;;;;;;12.40;8.20;;;;;;;;;;5042411;28;20132;-67
2022/09/26 17:23:03;;;;;;;10.38;7.13;;;;;;;;;;5041067;28;20095;-67
2022/09/26 17:25:31;;;;;;;9.25;6.03;;;;;;;;;;5041675;28;20056;-68
2022/09/26 17:27:58;;;;;;;10.90;7.10;;;;;;;;;;5047351;28;20032;-64
2022/09/26 17:30:24;;;;;;;9.10;7.20;;;;;;;;;;5038772;28;20052;-67
2022/09/26 17:32:53;;;;;;;11.80;7.78;;;;;;;;;;5043033;28;20029;-66
2022/09/26 17:35:25;;;;;;;12.25;7.45;;;;;;;;;;5042013;28;20025;-67
2022/09/26 17:37:51;;;;;;;8.27;5.95;;;;;;;;;;5040706;28;20021;-64
2022/09/26 17:40:21;;;;;;;10.68;6.82;;;;;;;;;;5043053;28;20025;-65
2022/09/26 17:42:47;;;;;;;13.48;7.45;;;;;;;;;;5047105;28;20499;-66
2022/09/26 17:45:13;;;;;;;9.73;7.65;;;;;;;;;;5042191;28;20022;-68
2022/09/26 17:47:40;;;;;;;12.85;9.75;;;;;;;;;;5041360;28;20021;-68
2022/09/26 17:50:06;;;;;;;15.75;12.05;;;;;;;;;;5043396;28;20047;-66
2022/09/26 17:52:33;;;;;;;17.35;14.20;;;;;;;;;;5043936;28;20072;-67
2022/09/26 17:55:01;;;;;;;22.45;16.25;;;;;;;;;;5041187;28;20020;-68
2022/09/26 17:57:32;;;;;;;26.15;19.13;;;;;;;;;;5038615;28;20018;-67
2022/09/26 18:00:00;;;;;;;24.15;19.55;;;;;;;;;;5041100;28;20020;-67
2022/09/26 18:02:33;;;;;;;26.80;20.30;;;;;;;;;;5038236;28;20112;-69
2022/09/26 18:04:59;;;;;;;;;;;;;;;;;;5041106;28;20116;-67
2022/09/26 18:07:30;;;;;;;29.88;24.02;;;;;;;;;;5042401;28;19968;-67
2022/09/26 18:09:57;;;;;;;25.15;20.45;;;;;;;;;;5043411;28;20020;-68
2022/09/26 18:12:24;;;;;;;28.75;23.40;;;;;;;;;;5039986;28;20518;-67
2022/09/26 18:14:51;;;;;;;34.97;26.20;;;;;;;;;;5045531;28;20017;-68
2022/09/26 18:17:17;;;;;;;29.83;24.80;;;;;;;;;;5042964;28;20088;-68
2022/09/26 18:19:43;;;;;;;31.40;26.70;;;;;;;;;;5040448;28;20029;-67
2022/09/26 18:22:17;;;;;;;35.88;30.42;;;;;;;;;;5037636;28;20026;-67
2022/09/26 18:24:46;;;;;;;37.97;29.88;;;;;;;;;;5041934;28;20047;-66
2022/09/26 18:27:13;;;;;;;36.97;27.55;;;;;;;;;;5030656;28;20136;-68
2022/09/26 18:29:41;;;;;;;38.08;29.38;;;;;;;;;;5032224;28;20425;-70
2022/09/26 18:32:34;;;;;;;34.72;28.75;;;;;;;;;;5037699;28;20401;-67
2022/09/26 18:35:00;;;;;;;34.22;28.13;;;;;;;;;;5044192;28;20825;-68
2022/09/26 18:37:30;;;;;;;31.17;25.40;;;;;;;;;;5051672;28;20036;-68
2022/09/26 18:39:58;;;;;;;31.30;25.95;;;;;;;;;;5038944;28;20115;-68
2022/09/26 18:42:24;;;;;;;35.83;28.38;;;;;;;;;;5034613;28;20084;-67
2022/09/26 18:44:56;;;;;;;34.83;28.10;;;;;;;;;;5036917;28;20024;-68
2022/09/26 18:47:22;;;;;;;22.05;18.88;;;;;;;;;;5041255;28;20044;-69
2022/09/26 18:49:48;;;;;;;31.95;25.17;;;;;;;;;;5039973;28;20013;-68
2022/09/26 18:52:15;;;;;;;30.10;25.77;;;;;;;;;;5041657;28;20036;-68
2022/09/26 18:58:22;;;;;;;32.38;26.55;;;;;;;;;;5043809;28;20017;-66
2022/09/26 19:00:17;;;;;;;30.48;24.88;;;;;;;;;;5038424;28;20566;-68
2022/09/26 19:02:43;;;;;;;24.50;21.80;;;;;;;;;;5039676;28;20021;-70
2022/09/26 19:05:14;;;;;;;24.08;20.35;;;;;;;;;;5041121;28;20018;-68
2022/09/26 19:07:43;;;;;;;22.58;19.88;;;;;;;;;;5043543;28;20032;-68
2022/09/26 19:10:21;;;;;;;22.50;20.05;;;;;;;;;;5054243;28;20037;-68
2022/09/26 19:12:47;;;;;;;20.98;18.63;;;;;;;;;;5049227;28;20053;-67
2022/09/26 19:15:16;;;;;;;17.38;14.48;;;;;;;;;;5051542;28;20100;-67
2022/09/26 19:17:42;;;;;;;16.25;14.10;;;;;;;;;;5051563;28;20112;-68
2022/09/26 19:20:09;;;;;;;18.77;14.48;;;;;;;;;;5051566;28;20028;-67
2022/09/26 19:22:35;;;;;;;15.50;13.45;;;;;;;;;;5051006;28;20579;-69
2022/09/26 19:25:02;;;;;;;16.50;13.98;;;;;;;;;;5052341;28;20474;-70
2022/09/26 19:27:30;;;;;;;20.27;14.70;;;;;;;;;;5051129;28;20036;-68
2022/09/26 19:29:58;;;;;;;20.40;15.57;;;;;;;;;;5041802;28;20100;-68
2022/09/26 19:32:43;;;;;;;22.00;17.15;;;;;;;;;;5049325;28;20033;-67
2022/09/26 19:35:12;;;;;;;23.55;18.00;;;;;;;;;;5032872;28;20035;-71
2022/09/26 19:37:38;;;;;;;21.63;16.52;;;;;;;;;;5034650;28;20083;-65
2022/09/26 19:40:13;;;;;;;23.63;17.75;;;;;;;;;;5034473;28;20038;-65
2022/09/26 19:42:41;;;;;;;24.98;19.58;;;;;;;;;;5026842;28;20034;-68
2022/09/26 19:45:08;;;;;;;25.38;20.13;;;;;;;;;;5033302;28;20430;-68
2022/09/26 19:47:34;;;;;;;27.00;22.13;;;;;;;;;;5031806;28;20192;-68
2022/09/26 19:50:00;;;;;;;27.42;22.10;;;;;;;;;;5028141;28;20037;-68
2022/09/26 19:52:26;;;;;;;29.77;23.58;;;;;;;;;;5029590;28;20503;-67
2022/09/26 19:54:53;;;;;;;30.35;23.60;;;;;;;;;;5038501;28;20488;-69
2022/09/26 19:57:20;;;;;;;26.20;22.17;;;;;;;;;;5042540;28;20040;-67
2022/09/26 19:59:46;;;;;;;27.60;21.88;;;;;;;;;;5033892;28;20471;-67
2022/09/26 20:02:20;;;;;;;28.13;20.95;;;;;;;;;;5042101;28;20055;-69
2022/09/26 20:04:48;;;;;;;23.58;19.17;;;;;;;;;;5041550;28;20109;-67
2022/09/26 20:07:18;;;;;;;18.83;16.17;;;;;;;;;;5044397;28;20424;-70
2022/09/26 20:09:45;;;;;;;20.60;15.68;;;;;;;;;;5039994;28;20034;-66
2022/09/26 20:12:11;;;;;;;18.75;16.10;;;;;;;;;;5039540;28;20056;-69
2022/09/26 20:14:37;;;;;;;18.10;14.20;;;;;;;;;;5031049;28;20040;-67
2022/09/26 20:17:13;;;;;;;19.33;15.07;;;;;;;;;;5034812;28;20488;-66
2022/09/26 20:19:41;;;;;;;18.42;15.10;;;;;;;;;;5031825;28;20037;-67
2022/09/26 20:22:11;;;;;;;15.82;13.25;;;;;;;;;;5041521;28;20514;-68
2022/09/26 20:24:38;;;;;;;17.45;13.30;;;;;;;;;;5050695;28;20032;-70
2022/09/26 20:27:06;;;;;;;16.83;12.88;;;;;;;;;;5047373;28;20057;-68
2022/09/26 20:30:50;;;;;;;19.23;16.20;;;;;;;;;;5022290;28;20192;-69
2022/09/26 20:32:18;;;;;;;19.13;15.35;;;;;;;;;;5024554;28;20051;-69
2022/09/26 20:34:44;;;;;;;19.08;15.70;;;;;;;;;;5033490;28;20029;-69
2022/09/26 20:37:12;;;;;;;17.70;14.35;;;;;;;;;;5032944;28;20384;-69
2022/09/26 20:39:38;;;;;;;17.95;14.88;;;;;;;;;;5034669;28;20091;-69
2022/09/26 20:42:06;;;;;;;22.45;16.92;;;;;;;;;;5033773;28;20038;-69
2022/09/26 20:44:33;;;;;;;20.30;16.38;;;;;;;;;;5037191;28;20044;-68
2022/09/26 20:47:02;;;;;;;19.15;15.77;;;;;;;;;;5033921;28;20025;-69
2022/09/26 20:49:35;;;;;;;18.15;15.43;;;;;;;;;;5034243;28;20063;-69
2022/09/26 20:52:02;;;;;;;18.77;14.15;;;;;;;;;;5033861;28;20056;-68
2022/09/26 20:54:32;;;;;;;14.95;12.90;;;;;;;;;;5033827;28;20441;-67
2022/09/26 20:57:00;;;;;;;19.92;14.20;;;;;;;;;;5053114;28;20039;-67
2022/09/26 20:59:26;;;;;;;15.80;13.30;;;;;;;;;;5054280;28;20083;-68
2022/09/26 21:01:53;;;;;;;17.60;14.02;;;;;;;;;;5053647;28;20025;-68
2022/09/26 21:04:29;;;;;;;16.20;13.73;;;;;;;;;;5053835;28;20078;-68
2022/09/26 21:06:56;;;;;;;16.75;13.13;;;;;;;;;;5053585;28;20105;-68
2022/09/26 21:09:22;;;;;;;16.70;13.45;;;;;;;;;;5033803;28;20030;-68
2022/09/26 21:11:48;;;;;;;17.98;14.05;;;;;;;;;;5033531;28;20053;-68
2022/09/26 21:14:15;;;;;;;15.18;12.73;;;;;;;;;;5033927;28;20048;-68
2022/09/26 21:16:45;;;;;;;16.80;13.40;;;;;;;;;;5032621;28;20431;-67
2022/09/26 21:19:15;;;;;;;16.80;14.02;;;;;;;;;;5033585;28;20032;-67
2022/09/26 21:21:41;;;;;;;15.52;12.20;;;;;;;;;;5033738;28;20025;-67
2022/09/26 21:24:10;;;;;;;18.70;13.95;;;;;;;;;;5033703;28;20489;-67
2022/09/26 21:26:36;;;;;;;19.25;13.75;;;;;;;;;;5033714;28;20117;-67
2022/09/26 21:29:05;;;;;;;19.75;14.00;;;;;;;;;;5032509;28;20037;-67
2022/09/26 21:31:34;;;;;;;18.48;14.63;;;;;;;;;;5033545;28;20091;-64
2022/09/26 21:34:02;;;;;;;20.77;14.98;;;;;;;;;;5020228;28;20095;-68
2022/09/26 21:36:31;;;;;;;20.27;15.15;;;;;;;;;;5012589;28;20370;-68
2022/09/26 21:38:57;;;;;;;20.08;14.80;;;;;;;;;;5029942;28;20072;-67
2022/09/26 21:41:23;;;;;;;14.63;11.93;;;;;;;;;;5033254;28;20025;-67
2022/09/26 21:43:53;;;;;;;13.45;10.90;;;;;;;;;;5032523;28;20026;-67
2022/09/26 21:46:19;;;;;;;17.90;12.70;;;;;;;;;;5033189;28;20437;-68
2022/09/26 21:48:45;;;;;;;17.50;13.18;;;;;;;;;;5052326;28;20095;-67
2022/09/26 21:51:11;;;;;;;14.93;10.55;;;;;;;;;;5052257;28;20475;-67
2022/09/26 21:53:44;;;;;;;13.85;10.73;;;;;;;;;;5052918;28;20108;-67
2022/09/26 21:56:14;;;;;;;12.35;8.80;;;;;;;;;;5052983;28;20056;-67
2022/09/26 21:58:40;;;;;;;12.98;9.40;;;;;;;;;;5052434;28;20025;-67
2022/09/26 22:01:07;;;;;;;13.05;9.25;;;;;;;;;;5052761;28;20032;-67
2022/09/26 22:03:34;;;;;;;15.02;10.10;;;;;;;;;;5046338;28;20037;-67
2022/09/26 22:06:02;;;;;;;12.60;9.13;;;;;;;;;;5031378;28;20380;-67
2022/09/26 22:08:28;;;;;;;10.95;8.43;;;;;;;;;;5032296;28;20156;-67
2022/09/26 22:10:54;;;;;;;9.77;6.97;;;;;;;;;;5032849;28;20034;-66
2022/09/26 22:13:20;;;;;;;9.75;5.35;;;;;;;;;;5032054;28;20355;-67
2022/09/26 22:15:47;;;;;;;9.00;6.07;;;;;;;;;;5031993;28;20445;-66
2022/09/26 22:18:13;;;;;;;12.13;6.10;;;;;;;;;;5032630;28;20109;-66
2022/09/26 22:20:39;;;;;;;6.53;4.57;;;;;;;;;;5032513;28;20025;-66
2022/09/26 22:23:05;;;;;;;5.55;4.40;;;;;;;;;;5032388;28;20031;-67
2022/09/26 22:25:31;;;;;;;5.13;3.83;;;;;;;;;;5032485;28;20043;-67
2022/09/26 22:27:58;;;;;;;5.28;3.85;;;;;;;;;;5031776;28;20028;-67
2022/09/26 22:30:24;;;;;;;5.82;4.60;;;;;;;;;;5031992;28;20071;-68
2022/09/26 22:32:50;;;;;;;4.88;3.60;;;;;;;;;;5032243;28;20069;-68
2022/09/26 22:35:17;;;;;;;8.90;3.47;;;;;;;;;;5032127;28;20022;-67
2022/09/26 22:37:43;;;;;;;4.93;3.67;;;;;;;;;;5032350;28;20029;-68
2022/09/26 22:40:09;;;;;;;4.28;3.38;;;;;;;;;;5032220;28;20021;-67
2022/09/26 22:42:35;;;;;;;6.70;4.00;;;;;;;;;;5032669;28;20104;-67
2022/09/26 22:45:01;;;;;;;6.32;5.00;;;;;;;;;;5032153;28;20096;-67
2022/09/26 22:47:27;;;;;;;6.45;4.57;;;;;;;;;;5032283;28;20026;-68
2022/09/26 22:49:53;;;;;;;7.40;4.25;;;;;;;;;;5032107;28;20029;-67
2022/09/26 22:52:19;;;;;;;5.53;3.85;;;;;;;;;;5032220;28;20033;-67
2022/09/26 22:54:46;;;;;;;5.78;4.03;;;;;;;;;;5032306;28;20507;-67
2022/09/26 22:57:13;;;;;;;10.25;4.25;;;;;;;;;;5031222;28;20380;-67
